»·PEaware :: SWA3310 KOAK-KBUR

SWA3310 :: KOAK-KBUR

FLIGHT INFORMATION

Flight Status: Arrived
Operator:
Southwest Airlines
More flights by this operator :: More flights under this callsign
Pilot: Patricio R. (14780)
Aircraft: BOEING 737-200
(B732)
More flights by this aircraft type
Origin: KOAK Metro Oakland Intl
United States
Destination: KBUR Bob Hope-Burbank
United States
More flights between these airports :: More routes between these airports
Route: +SKYL9 AVE FERN7
File this flight plan on PilotEdge
Remarks: PBN / A1B2 DOF / 180812 REG / N275SB EET / KZLA0025 OPR / SWA RMK / TCAS SIMBRIEF
Altitude:
(Current/Filed)
29,000ft
Speed:
(Current/Filed)
448kts
Departed: 12-Aug-18 10:47 AM
Arrived: 12-Aug-18 11:45 AM
Distance/Time
Traveled:
283nm/0:58
Distance/Time
To Go:
Arrived

Flight Plot

Page will automatically refresh every two minutes.

Flight plan parsing failed; only flown route is shown


Map Options




Map Legend


Flown Route
Filed Route
Departure Airport
Arrival Airport
Navaid (VOR, NDB)
Fix

Horizontal Profiles

Position Reports

Time Latitude Longitude Heading Altitude Ground
Speed
12-Aug-18 10:27 37.711261 -122.213008 57 15ft 0kts
12-Aug-18 10:28 37.711261 -122.213008 57 15ft 0kts
12-Aug-18 10:29 37.711261 -122.213008 57 15ft 0kts
12-Aug-18 10:30 37.711261 -122.213008 57 15ft 0kts
12-Aug-18 10:31 37.711261 -122.213008 57 15ft 0kts
12-Aug-18 10:32 37.711261 -122.213008 57 15ft 0kts
12-Aug-18 10:33 37.711261 -122.213008 57 15ft 0kts
12-Aug-18 10:34 37.711261 -122.213008 57 15ft 0kts
12-Aug-18 10:35 37.711238 -122.213053 58 15ft 2kts
12-Aug-18 10:36 37.710947 -122.213638 54 15ft 2kts
12-Aug-18 10:37 37.710530 -122.213634 308 15ft 0kts
12-Aug-18 10:38 37.710446 -122.214211 214 15ft 0kts
12-Aug-18 10:39 37.710445 -122.214212 214 15ft 0kts
12-Aug-18 10:40 37.709838 -122.214755 217 15ft 10kts
12-Aug-18 10:41 37.709414 -122.215183 219 15ft 0kts
12-Aug-18 10:42 37.709362 -122.215238 220 15ft 0kts
12-Aug-18 10:43 37.708662 -122.216029 222 14ft 9kts
12-Aug-18 10:44 37.705789 -122.216911 127 14ft 15kts
12-Aug-18 10:45 37.702919 -122.213634 162 14ft 0kts
12-Aug-18 10:46 37.702919 -122.213634 162 14ft 0kts
12-Aug-18 10:47 37.702602 -122.213567 182 14ft 9kts
12-Aug-18 10:48 37.710473 -122.227748 309 58ft 161kts
12-Aug-18 10:49 37.742178 -122.276847 309 2923ft 198kts
12-Aug-18 10:50 37.778817 -122.333502 309 5631ft 228kts
12-Aug-18 10:51 37.776204 -122.403040 216 8111ft 257kts
12-Aug-18 10:52 37.712570 -122.457847 214 10419ft 291kts
12-Aug-18 10:53 37.644408 -122.516080 214 13024ft 301kts
12-Aug-18 10:54 37.566640 -122.521419 154 15236ft 312kts
12-Aug-18 10:55 37.488234 -122.471440 153 17273ft 321kts
12-Aug-18 10:56 37.407937 -122.418752 152 19090ft 331kts
12-Aug-18 10:57 37.346653 -122.337087 113 20688ft 338kts
12-Aug-18 10:58 37.312036 -122.226314 104 22125ft 347kts
12-Aug-18 10:59 37.288189 -122.107913 104 23437ft 354kts
12-Aug-18 11:00 37.236301 -122.004135 129 24593ft 360kts
12-Aug-18 11:01 37.170226 -121.909349 132 25649ft 367kts
12-Aug-18 11:02 37.099718 -121.815483 133 26613ft 372kts
12-Aug-18 11:03 37.027833 -121.721567 133 27479ft 377kts
12-Aug-18 11:04 36.954407 -121.626590 133 28265ft 382kts
12-Aug-18 11:05 36.889050 -121.542093 134 28894ft 386kts
12-Aug-18 11:06 36.817444 -121.451441 134 29006ft 403kts
12-Aug-18 11:07 36.738538 -121.350301 133 29002ft 410kts
12-Aug-18 11:08 36.658526 -121.247692 134 29001ft 416kts
12-Aug-18 11:09 36.577737 -121.144543 134 29001ft 420kts
12-Aug-18 11:10 36.495882 -121.040198 134 29001ft 423kts
12-Aug-18 11:11 36.413400 -120.935390 134 29000ft 426kts
12-Aug-18 11:12 36.330794 -120.830871 134 29000ft 428kts
12-Aug-18 11:13 36.247303 -120.725574 134 29000ft 429kts
12-Aug-18 11:14 36.163515 -120.620076 134 29000ft 430kts
12-Aug-18 11:15 36.079229 -120.514686 134 29000ft 431kts
12-Aug-18 11:16 35.995312 -120.409511 134 29000ft 432kts
12-Aug-18 11:17 35.911389 -120.304687 134 29000ft 433kts
12-Aug-18 11:18 35.829450 -120.204128 135 29000ft 433kts
12-Aug-18 11:19 35.744402 -120.099153 135 29000ft 433kts
12-Aug-18 11:20 35.659448 -119.994314 134 29000ft 434kts
12-Aug-18 11:21 35.574475 -119.889760 134 29000ft 434kts
12-Aug-18 11:22 35.489200 -119.785225 135 29000ft 434kts
12-Aug-18 11:23 35.379514 -119.729020 156 29004ft 433kts
12-Aug-18 11:24 35.275215 -119.656623 146 29000ft 433kts
12-Aug-18 11:25 35.175190 -119.574333 145 29000ft 434kts
12-Aug-18 11:26 35.075425 -119.492018 147 29004ft 434kts
12-Aug-18 11:27 34.978572 -119.412360 144 28895ft 391kts
12-Aug-18 11:28 34.895871 -119.341555 145 26282ft 371kts
12-Aug-18 11:29 34.831750 -119.287097 145 23989ft 349kts
12-Aug-18 11:30 34.752795 -119.219477 144 22248ft 349kts
12-Aug-18 11:31 34.674949 -119.152735 144 20500ft 338kts
12-Aug-18 11:32 34.599443 -119.088098 144 18769ft 329kts
12-Aug-18 11:33 34.526136 -119.025472 144 16287ft 317kts
12-Aug-18 11:34 34.456921 -118.966471 144 13684ft 306kts
12-Aug-18 11:35 34.392311 -118.903309 115 12116ft 298kts
12-Aug-18 11:36 34.381196 -118.808050 102 10501ft 275kts
12-Aug-18 11:37 34.364658 -118.720708 102 8795ft 258kts
12-Aug-18 11:38 34.349570 -118.641045 102 7138ft 226kts
12-Aug-18 11:39 34.344803 -118.565286 93 4933ft 217kts
12-Aug-18 11:40 34.339994 -118.502676 100 3891ft 170kts
12-Aug-18 11:41 34.330326 -118.453116 103 3311ft 141kts
12-Aug-18 11:42 34.313517 -118.410678 131 3321ft 144kts
12-Aug-18 11:43 34.281240 -118.380718 157 2931ft 147kts
12-Aug-18 11:44 34.242967 -118.369002 167 1928ft 139kts
12-Aug-18 11:45 34.206509 -118.358836 167 792ft 120kts
12-Aug-18 11:46 34.197211 -118.354048 91 785ft 19kts
12-Aug-18 11:47 34.196806 -118.351973 179 785ft 0kts
12-Aug-18 11:48 34.196806 -118.351973 179 785ft 0kts

Navigation Log

Ident Type
Flight plan parsing failed, navigation log unavailable